Time;durP1;ratioP1;P1;durP2;ratioP2;P2;SDS_P1;SDS_P2;PMS_P1;PMS_P2;Temp;Humidity;BMP_temperature;BMP_pressure;BME280_temperature;BME280_humidity;BME280_pressure;Samples;Min_cycle;Max_cycle;Signal;HPM_P1;HPM_P2
2022/10/05 00:02:21;;;;;;;50.17;29.83;;;;;;;-141.97;59.24;47584.44;4957073;28;20679;-80
2022/10/05 00:04:56;;;;;;;45.43;26.30;;;;;;;-141.97;59.29;47578.66;4956615;28;20183;-80
2022/10/05 00:07:23;;;;;;;23.67;14.77;;;;;;;-141.97;59.42;47551.75;4957418;28;20278;-80
2022/10/05 00:09:58;;;;;;;34.13;20.50;;;;;;;-141.97;59.86;47599.81;4956982;28;20176;-80
2022/10/05 00:12:27;;;;;;;30.93;17.40;;;;;;;-141.97;60.70;47592.13;4969787;28;20188;-79
2022/10/05 00:14:59;;;;;;;24.20;14.10;;;;;;;-141.97;60.67;47582.50;4977643;28;20172;-80
2022/10/05 00:17:28;;;;;;;18.70;11.67;;;;;;;-141.97;60.84;47590.19;4963809;28;20261;-80
2022/10/05 00:19:54;;;;;;;14.33;9.63;;;;;;;-141.97;60.60;47532.53;4956882;29;20256;-80
2022/10/05 00:22:28;;;;;;;24.73;13.70;;;;;;;-141.97;60.76;47559.44;4956722;29;20215;-80
2022/10/05 00:24:57;;;;;;;22.17;15.27;;;;;;;-141.97;60.89;47605.56;4956730;28;20263;-80
2022/10/05 00:27:36;;;;;;;27.13;18.03;;;;;;;-141.97;60.96;47540.22;4956505;28;20207;-80
2022/10/05 00:30:18;;;;;;;29.13;18.97;;;;;;;-141.97;61.05;47599.81;4956599;28;20189;-80
2022/10/05 00:32:44;;;;;;;35.23;19.30;;;;;;;-141.97;61.51;47594.03;4956472;28;20174;-80
2022/10/05 00:35:11;;;;;;;19.70;12.27;;;;;;;-141.97;61.62;47542.16;4958492;28;20175;-80
2022/10/05 00:37:36;;;;;;;15.03;9.97;;;;;;;-141.97;62.44;47569.06;4960394;28;20175;-81
2022/10/05 00:40:12;;;;;;;11.57;8.07;;;;;;;-141.97;62.67;47553.69;4962900;28;20251;-80
2022/10/05 00:42:49;;;;;;;11.57;7.73;;;;;;;-141.97;62.81;47561.38;4969759;28;20157;-80
2022/10/05 00:45:20;;;;;;;10.87;7.67;;;;;;;-141.97;63.09;47521.00;4978141;28;20203;-81
2022/10/05 00:47:55;;;;;;;8.37;6.33;;;;;;;-141.97;62.95;47592.13;4977697;28;20228;-80
2022/10/05 00:50:24;;;;;;;10.07;7.23;;;;;;;-141.97;63.34;47599.81;4978214;28;20173;-82
2022/10/05 00:53:04;;;;;;;11.57;6.80;;;;;;;-141.97;63.50;47576.75;4979268;28;20179;-80
2022/10/05 00:56:06;;;;;;;9.93;6.87;;;;;;;-141.97;63.28;47557.53;4978803;28;20228;-80
2022/10/05 00:58:55;;;;;;;8.70;6.47;;;;;;;-141.97;63.59;47592.13;4939568;29;20213;-80
2022/10/05 01:01:55;;;;;;;9.53;6.83;;;;;;;-141.97;63.76;47559.44;4919236;29;20818;-81
2022/10/05 01:04:39;;;;;;;8.57;6.50;;;;;;;-141.97;64.20;47576.75;4915757;29;20178;-80
2022/10/05 01:07:14;;;;;;;10.47;6.90;;;;;;;-141.97;64.78;47576.75;4910893;29;20217;-81
2022/10/05 01:10:21;;;;;;;9.17;6.73;;;;;;;-141.97;64.82;47592.13;4921720;29;20670;-80
2022/10/05 01:13:06;;;;;;;9.30;7.10;;;;;;;-141.97;64.65;47607.50;4915722;29;20178;-80
2022/10/05 01:15:49;;;;;;;8.80;6.60;;;;;;;-141.97;64.96;47572.91;4915625;29;20193;-80
2022/10/05 01:18:28;;;;;;;10.83;7.23;;;;;;;-141.97;65.05;47580.59;4915424;29;20210;-81
2022/10/05 01:21:09;;;;;;;11.43;7.00;;;;;;;-141.97;64.83;47555.59;4914899;29;20198;-81
2022/10/05 01:23:53;;;;;;;12.10;7.53;;;;;;;-141.97;65.18;47570.97;4915606;29;20170;-81
2022/10/05 01:26:37;;;;;;;10.33;7.40;;;;;;;-141.97;65.52;47609.41;4899782;29;20201;-81
2022/10/05 01:29:15;;;;;;;12.73;8.87;;;;;;;-141.97;65.60;47599.81;4915384;29;20178;-80
2022/10/05 01:31:48;;;;;;;15.87;10.63;;;;;;;-141.97;65.54;47561.38;4915141;29;20269;-80
2022/10/05 01:34:42;;;;;;;31.50;16.47;;;;;;;-141.97;65.36;47557.53;4938186;29;20602;-79
2022/10/05 01:37:19;;;;;;;25.53;15.47;;;;;;;-141.97;66.03;47567.13;4955396;28;20607;-80
2022/10/05 01:40:10;;;;;;;24.80;12.90;;;;;;;-141.97;65.96;47584.44;4955266;28;20575;-80
2022/10/05 01:43:00;;;;;;;32.03;16.57;;;;;;;-141.97;66.86;47565.22;4954883;28;20181;-80
2022/10/05 01:45:45;;;;;;;33.93;17.97;;;;;;;-141.97;67.01;47570.97;4955266;28;20247;-80
2022/10/05 01:48:22;;;;;;;30.53;15.67;;;;;;;-141.97;67.00;47569.06;4955180;28;20244;-80
2022/10/05 01:51:07;;;;;;;26.57;15.47;;;;;;;-141.97;66.88;47580.59;4954650;28;20169;-81
2022/10/05 01:54:09;;;;;;;25.70;15.40;;;;;;;-141.97;66.45;47544.06;4954823;28;20654;-80
2022/10/05 01:56:51;;;;;;;29.50;15.77;;;;;;;-141.97;67.34;47580.59;4955101;29;20199;-80
2022/10/05 01:59:55;;;;;;;34.47;18.33;;;;;;;-141.97;67.58;47546.00;4954869;28;20177;-79
2022/10/05 02:02:23;;;;;;;28.87;16.27;;;;;;;-141.97;67.61;47570.97;4914051;29;20204;-80
2022/10/05 02:05:07;;;;;;;24.40;14.63;;;;;;;-141.97;67.36;47580.59;4936506;29;20178;-80
2022/10/05 02:07:47;;;;;;;26.73;15.23;;;;;;;-141.97;67.98;47572.91;4936078;29;20224;-80
2022/10/05 02:10:38;;;;;;;27.43;14.27;;;;;;;-141.97;66.87;47597.88;4934183;29;20320;-81
2022/10/05 02:13:12;;;;;;;32.80;16.43;;;;;;;-141.97;66.92;47544.06;4876914;29;20263;-81
2022/10/05 02:15:45;;;;;;;29.00;14.80;;;;;;;-141.97;66.75;47569.06;4876574;29;20699;-81
2022/10/05 02:18:18;;;;;;;19.07;11.43;;;;;;;-141.97;66.79;47595.97;4876696;29;20267;-80
2022/10/05 02:20:46;;;;;;;14.87;9.97;;;;;;;-141.97;66.56;47595.97;4876355;29;20550;-80
2022/10/05 02:23:18;;;;;;;13.27;8.57;;;;;;;-141.97;66.13;47569.06;4876285;29;20199;-80
2022/10/05 02:25:46;;;;;;;11.03;8.30;;;;;;;-141.97;66.01;47690.16;4876591;29;20779;-81
2022/10/05 02:28:21;;;;;;;32.33;16.17;;;;;;;-141.97;65.62;47519.06;4876310;29;20666;-81
2022/10/05 02:30:55;;;;;;;25.37;14.03;;;;;;;-141.97;66.11;47611.34;4876687;29;20750;-81
2022/10/05 02:33:28;;;;;;;35.17;16.93;;;;;;;-141.97;66.12;47551.75;4876365;29;20817;-80
2022/10/05 02:35:58;;;;;;;31.13;16.80;;;;;;;-141.97;66.16;47594.03;4876415;29;20195;-80
2022/10/05 02:38:55;;;;;;;32.93;16.00;;;;;;;-141.97;65.98;47578.66;4884010;29;20233;-81
2022/10/05 02:41:32;;;;;;;26.93;15.17;;;;;;;-141.97;66.30;47576.75;4894910;29;20912;-81
2022/10/05 02:44:18;;;;;;;28.77;14.00;;;;;;;-141.97;66.68;47576.75;4895111;29;20195;-81
2022/10/05 02:46:58;;;;;;;22.60;12.57;;;;;;;-141.97;67.42;47617.09;4894554;29;20257;-81
2022/10/05 02:49:50;;;;;;;16.63;9.00;;;;;;;-141.97;67.84;47592.13;4908122;29;20191;-80
2022/10/05 02:53:14;;;;;;;17.03;9.90;;;;;;;-141.97;68.21;47595.97;4953600;28;20177;-80
2022/10/05 02:55:45;;;;;;;20.73;11.20;;;;;;;-141.97;67.99;47559.44;4857649;29;20232;-81
2022/10/05 02:58:15;;;;;;;20.43;9.67;;;;;;;-141.97;68.48;47544.06;4857575;29;20694;-81
2022/10/05 03:00:57;;;;;;;34.97;15.27;;;;;;;-141.97;69.11;47599.81;4857739;29;20641;-81
2022/10/05 03:03:25;;;;;;;22.90;12.47;;;;;;;-141.97;69.76;47588.28;4870404;29;20202;-81
2022/10/05 03:06:34;;;;;;;16.50;9.10;;;;;;;-141.97;69.03;47607.50;4875681;29;20613;-81
2022/10/05 03:09:04;;;;;;;12.80;7.87;;;;;;;-141.97;69.23;47549.84;4820661;29;20201;-81
2022/10/05 03:11:45;;;;;;;12.53;7.67;;;;;;;-141.97;69.56;47580.59;4820785;29;20580;-80
2022/10/05 03:14:25;;;;;;;11.77;7.90;;;;;;;-141.97;69.74;47551.75;4838818;29;20655;-80
2022/10/05 03:17:13;;;;;;;11.43;7.63;;;;;;;-141.97;69.29;47561.38;4838572;29;20725;-80
2022/10/05 03:19:57;;;;;;;12.00;7.63;;;;;;;-141.97;69.02;47547.91;4838808;29;20208;-81
2022/10/05 03:22:41;;;;;;;11.70;7.93;;;;;;;-141.97;69.36;47574.81;4838569;29;20208;-81
2022/10/05 03:25:30;;;;;;;14.10;8.60;;;;;;;-141.97;69.41;47572.91;4838537;29;20184;-80
2022/10/05 03:28:03;;;;;;;42.03;19.67;;;;;;;-141.97;68.59;47582.50;4838660;29;20201;-81
2022/10/05 03:30:36;;;;;;;36.00;17.37;;;;;;;-141.97;68.51;47592.13;4823903;29;20670;-81
2022/10/05 03:33:44;;;;;;;29.03;16.07;;;;;;;-141.97;68.02;47576.75;4886042;29;20202;-80
2022/10/05 03:36:28;;;;;;;23.37;13.07;;;;;;;-141.97;68.30;47588.28;4894403;29;20195;-81
2022/10/05 03:39:18;;;;;;;17.03;11.13;;;;;;;-141.97;67.89;47588.28;4894026;29;20205;-81
2022/10/05 03:42:15;;;;;;;17.07;10.87;;;;;;;-141.97;68.81;47559.44;4894413;29;20262;-81
2022/10/05 03:44:58;;;;;;;18.47;11.00;;;;;;;-141.97;68.57;47588.28;4899129;29;20179;-81
2022/10/05 03:47:46;;;;;;;17.63;10.77;;;;;;;-141.97;68.70;47565.22;4950994;29;20215;-81
2022/10/05 03:50:39;;;;;;;20.20;11.20;;;;;;;-141.97;68.56;47574.81;4951170;29;20198;-80
2022/10/05 03:53:15;;;;;;;18.40;11.23;;;;;;;-141.97;68.97;47576.75;4950443;29;20194;-81
2022/10/05 03:55:49;;;;;;;23.30;14.27;;;;;;;-141.97;68.76;47661.31;4951106;29;20727;-82
2022/10/05 03:58:23;;;;;;;23.37;13.60;;;;;;;-141.97;68.74;47617.09;4950963;29;20562;-80
2022/10/05 04:00:54;;;;;;;19.73;11.13;;;;;;;-141.97;68.62;47576.75;4950740;29;20671;-82
2022/10/05 04:03:38;;;;;;;24.97;13.07;;;;;;;-141.97;68.39;47599.81;4950489;29;20181;-79
2022/10/05 04:06:14;;;;;;;31.63;17.47;;;;;;;-141.97;67.56;47567.13;4950645;29;20713;-80
2022/10/05 04:08:43;;;;;;;23.27;12.17;;;;;;;-141.97;67.88;47576.75;4950958;29;20215;-82
2022/10/05 04:11:15;;;;;;;22.37;11.70;;;;;;;-141.97;68.03;47578.66;4950713;28;20253;-81
2022/10/05 04:13:50;;;;;;;20.60;12.53;;;;;;;-141.97;68.05;47592.13;4964267;28;20659;-81
2022/10/05 04:16:19;;;;;;;18.53;12.10;;;;;;;-141.97;68.18;47580.59;4953391;28;20211;-81
2022/10/05 04:19:08;;;;;;;21.60;12.93;;;;;;;-141.97;68.50;47599.81;4953156;28;20184;-82
2022/10/05 04:21:49;;;;;;;22.23;12.47;;;;;;;-141.97;68.72;47546.00;4912680;29;20194;-82
2022/10/05 04:24:21;;;;;;;24.57;13.60;;;;;;;-141.97;69.29;47578.66;4912536;29;20584;-81
2022/10/05 04:26:59;;;;;;;34.17;19.73;;;;;;;-141.97;68.75;47572.91;4912495;29;20300;-81
2022/10/05 04:29:38;;;;;;;28.63;17.60;;;;;;;-141.97;68.54;47576.75;4912513;29;20706;-80
2022/10/05 04:32:48;;;;;;;45.63;27.23;;;;;;;-141.97;68.29;47599.81;4912479;29;20299;-82
2022/10/05 04:35:26;;;;;;;39.80;25.40;;;;;;;-141.97;68.07;47576.75;4890084;29;20194;-81
2022/10/05 04:38:09;;;;;;;34.03;19.97;;;;;;;-141.97;67.65;47584.44;4893442;29;20175;-80
2022/10/05 04:40:50;;;;;;;36.80;21.67;;;;;;;-141.97;68.15;47576.75;4893417;29;20187;-81
2022/10/05 04:43:39;;;;;;;30.93;17.63;;;;;;;-141.97;68.10;47563.28;4893311;29;20210;-80
2022/10/05 04:46:17;;;;;;;26.87;13.93;;;;;;;-141.97;68.17;47561.38;4894821;29;20351;-80
2022/10/05 04:49:12;;;;;;;24.23;13.33;;;;;;;-141.97;68.43;47603.66;4897093;29;20222;-81
2022/10/05 04:52:06;;;;;;;23.90;12.87;;;;;;;-141.97;68.49;47592.13;4897036;29;20262;-80
2022/10/05 04:55:11;;;;;;;31.73;11.53;;;;;;;-141.97;69.04;47619.03;4896627;29;20270;-81
2022/10/05 04:58:14;;;;;;;17.83;10.30;;;;;;;-141.97;68.63;47588.28;4879823;29;20208;-80
2022/10/05 05:00:51;;;;;;;13.50;8.73;;;;;;;-141.97;68.34;47605.56;4896725;29;20270;-81
2022/10/05 05:03:39;;;;;;;13.70;8.90;;;;;;;-141.97;68.21;47578.66;4869848;29;20708;-82
2022/10/05 05:06:05;;;;;;;12.63;8.27;;;;;;;-141.97;68.23;47565.22;4873994;29;20214;-81
2022/10/05 05:08:39;;;;;;;14.53;8.47;;;;;;;-141.97;67.79;47594.03;4877248;29;20819;-82
2022/10/05 05:11:05;;;;;;;16.27;8.40;;;;;;;-141.97;67.52;47553.69;4890862;29;20255;-82
2022/10/05 05:13:49;;;;;;;13.77;7.43;;;;;;;-141.97;67.07;47574.81;4938014;29;20676;-81
2022/10/05 05:16:44;;;;;;;12.47;7.47;;;;;;;-141.97;66.41;47565.22;4936097;29;20189;-82
2022/10/05 05:19:16;;;;;;;14.53;7.77;;;;;;;-141.97;65.88;47584.44;4934026;29;20234;-81
2022/10/05 05:21:50;;;;;;;12.63;7.50;;;;;;;-141.97;65.89;47594.03;4933917;29;20181;-81
2022/10/05 05:24:22;;;;;;;12.47;7.40;;;;;;;-141.97;65.55;47599.81;4933161;29;20200;-80
2022/10/05 05:27:21;;;;;;;16.13;7.53;;;;;;;-141.97;65.02;47601.72;4933863;29;20279;-81
2022/10/05 05:29:58;;;;;;;12.63;7.17;;;;;;;-141.97;64.77;47588.28;4933444;29;20800;-81
2022/10/05 05:32:35;;;;;;;15.13;7.57;;;;;;;-141.97;64.33;47569.06;4933801;29;20197;-81
2022/10/05 05:35:08;;;;;;;15.87;6.87;;;;;;;-141.97;63.96;47590.19;4922120;29;20185;-80
2022/10/05 05:37:54;;;;;;;14.90;7.40;;;;;;;-141.97;63.42;47561.38;4914483;29;20734;-79
2022/10/05 05:40:26;;;;;;;17.60;7.77;;;;;;;-141.97;63.07;47542.16;4926677;29;20204;-81
2022/10/05 05:43:29;;;;;;;20.93;10.90;;;;;;;-141.97;62.87;47599.81;4950942;28;20199;-80
2022/10/05 05:46:11;;;;;;;21.10;10.93;;;;;;;-141.97;62.63;47592.13;4955907;28;20184;-82
2022/10/05 05:48:41;;;;;;;15.67;7.73;;;;;;;-141.97;61.91;47570.97;4954542;28;20204;-81
2022/10/05 05:51:26;;;;;;;10.33;7.07;;;;;;;-141.97;61.22;47580.59;4953817;29;20207;-81
2022/10/05 05:54:04;;;;;;;9.83;6.37;;;;;;;-141.97;60.48;47607.50;4954612;28;20319;-80
2022/10/05 05:56:33;;;;;;;9.03;6.20;;;;;;;-141.97;59.80;47570.97;4954192;28;20176;-80
2022/10/05 05:59:18;;;;;;;10.07;7.00;;;;;;;-141.97;59.59;47592.13;4971684;28;20183;-81
2022/10/05 06:01:50;;;;;;;7.90;6.03;;;;;;;-141.97;58.63;47609.41;4972564;28;20179;-80
2022/10/05 06:04:40;;;;;;;9.07;7.40;;;;;;;-141.97;57.99;47497.94;4961073;28;20239;-80
2022/10/05 06:07:14;;;;;;;10.83;7.10;;;;;;;-141.97;56.93;47580.59;4954198;28;20209;-81
2022/10/05 06:09:46;;;;;;;8.63;6.27;;;;;;;-141.97;55.99;47599.81;4953537;28;20169;-81
2022/10/05 06:12:42;;;;;;;9.77;5.40;;;;;;;-141.97;54.77;47588.28;4954447;28;20180;-81
2022/10/05 06:15:26;;;;;;;7.40;5.23;;;;;;;-141.97;54.60;47592.13;4923767;29;20225;-81
2022/10/05 06:17:54;;;;;;;8.13;4.90;;;;;;;-141.97;53.66;47553.69;4933220;29;20284;-78
2022/10/05 06:20:35;;;;;;;11.07;6.73;;;;;;;-141.97;54.13;47546.00;4932626;29;20193;-78
2022/10/05 06:23:05;;;;;;;12.13;6.90;;;;;;;-141.97;53.83;47561.38;4932775;29;20623;-79
2022/10/05 06:25:43;;;;;;;14.93;8.47;;;;;;;-141.97;54.13;47557.53;4931859;29;20205;-81
2022/10/05 06:28:10;;;;;;;11.23;6.93;;;;;;;-141.97;54.63;47597.88;4932818;29;20748;-79
2022/10/05 06:31:00;;;;;;;11.17;6.60;;;;;;;-141.97;55.32;47619.03;4932689;29;20285;-80
2022/10/05 06:33:42;;;;;;;7.43;5.40;;;;;;;-141.97;56.31;47549.84;4932933;29;20658;-80
2022/10/05 06:36:26;;;;;;;11.97;6.70;;;;;;;-141.97;56.87;47586.34;4931604;29;20173;-80
2022/10/05 06:39:14;;;;;;;13.37;8.17;;;;;;;-141.97;56.37;47595.97;4932611;29;20264;-80
2022/10/05 06:42:15;;;;;;;17.27;9.17;;;;;;;-141.97;54.86;47549.84;4875634;29;20202;-80
2022/10/05 06:44:43;;;;;;;10.77;6.60;;;;;;;-141.97;54.37;47559.44;4875077;29;20207;-80
2022/10/05 06:47:48;;;;;;;10.80;6.10;;;;;;;-141.97;53.36;47570.97;4875182;29;20215;-80
2022/10/05 06:50:27;;;;;;;8.73;5.93;;;;;;;-141.97;53.01;47538.28;4803561;29;20182;-80
2022/10/05 06:53:19;;;;;;;8.60;6.13;;;;;;;-141.97;51.88;47578.66;4838353;29;20196;-78
2022/10/05 06:55:57;;;;;;;12.20;7.90;;;;;;;-141.97;51.22;47524.84;4837857;29;20236;-80
2022/10/05 06:58:53;;;;;;;16.67;8.07;;;;;;;-141.97;50.84;47597.88;4838080;29;20212;-79
2022/10/05 07:02:03;;;;;;;13.03;7.40;;;;;;;-141.97;48.23;47557.53;4838223;29;20611;-80
2022/10/05 07:04:51;;;;;;;10.73;6.47;;;;;;;-141.97;47.40;47561.38;4811575;29;20245;-80
2022/10/05 07:07:51;;;;;;;10.57;6.73;;;;;;;-141.97;46.72;47588.28;4819731;29;20323;-80
2022/10/05 07:10:25;;;;;;;10.50;6.10;;;;;;;-141.97;45.90;47530.59;4819680;29;20201;-79
2022/10/05 07:13:24;;;;;;;10.10;6.67;;;;;;;-141.97;45.46;47534.44;4819513;29;20709;-78
2022/10/05 07:16:11;;;;;;;10.43;6.37;;;;;;;-141.97;44.94;47576.75;4819722;29;20205;-80
2022/10/05 07:18:48;;;;;;;9.10;5.03;;;;;;;-141.97;44.19;47559.44;4845125;29;20195;-80
2022/10/05 07:21:49;;;;;;;7.90;5.07;;;;;;;-141.97;44.16;47503.69;4874630;29;20230;-80
2022/10/05 07:24:48;;;;;;;11.57;6.00;;;;;;;-141.97;43.96;47565.22;4856147;29;20633;-80
2022/10/05 07:27:22;;;;;;;9.73;5.27;;;;;;;-141.97;44.08;47569.06;4855780;29;20268;-80
2022/10/05 07:30:09;;;;;;;8.03;5.47;;;;;;;-141.97;44.17;47565.22;4855850;29;20754;-80
2022/10/05 07:32:54;;;;;;;8.13;5.33;;;;;;;-141.97;44.50;47540.22;4855979;29;20192;-80
2022/10/05 07:38:19;;;;;;;20.20;9.80;;;;;;;-141.97;43.41;47580.59;4855986;29;20240;-80
2022/10/05 07:41:13;;;;;;;9.53;7.10;;;;;;;-141.97;43.15;47524.84;4871539;29;20624;-79
2022/10/05 07:43:44;;;;;;;11.27;6.60;;;;;;;-141.97;41.88;47567.13;4837566;29;20207;-79
2022/10/05 07:46:28;;;;;;;12.77;5.90;;;;;;;-141.97;42.05;47561.38;4837266;29;20196;-79
2022/10/05 07:48:59;;;;;;;11.10;6.57;;;;;;;-141.97;41.30;47547.91;4875001;29;20326;-79
2022/10/05 07:51:50;;;;;;;11.87;6.30;;;;;;;-141.97;40.99;47553.69;4874342;29;20199;-79
2022/10/05 07:54:39;;;;;;;11.53;7.43;;;;;;;-141.97;41.42;47546.00;4873984;29;20598;-79
2022/10/05 07:57:43;;;;;;;9.47;6.17;;;;;;;-141.97;40.94;47530.59;4872156;29;20283;-79
2022/10/05 08:00:16;;;;;;;11.47;6.17;;;;;;;-141.97;40.41;47540.22;4855687;29;20282;-79
2022/10/05 08:02:57;;;;;;;10.77;5.87;;;;;;;-141.97;39.95;47515.22;4835965;29;20195;-79
2022/10/05 08:05:33;;;;;;;8.50;5.67;;;;;;;-141.97;39.55;47519.06;4864292;29;20642;-79
2022/10/05 08:08:51;;;;;;;11.30;5.30;;;;;;;-141.97;39.64;47501.78;4874173;29;20222;-79
2022/10/05 08:11:23;;;;;;;10.80;6.03;;;;;;;-141.97;40.09;47703.59;4855314;29;20195;-79
2022/10/05 08:14:01;;;;;;;7.97;5.23;;;;;;;-141.97;39.53;47555.59;4855813;29;20719;-78
2022/10/05 08:16:33;;;;;;;9.13;5.53;;;;;;;-141.97;40.31;47536.38;4855321;29;20196;-80
2022/10/05 08:19:16;;;;;;;6.50;4.47;;;;;;;-141.97;39.52;47547.91;4841442;29;20193;-79
2022/10/05 08:21:51;;;;;;;9.87;4.80;;;;;;;-141.97;39.18;47534.44;4894133;29;20333;-80
2022/10/05 08:24:45;;;;;;;5.57;4.97;;;;;;;-141.97;39.58;47553.69;4897272;29;20309;-80
2022/10/05 08:27:39;;;;;;;11.97;6.70;;;;;;;-141.97;39.48;47519.06;4878163;29;20751;-79
2022/10/05 08:30:09;;;;;;;9.33;5.50;;;;;;;-141.97;39.13;47522.91;4859304;29;20777;-79
2022/10/05 08:32:50;;;;;;;7.10;4.67;;;;;;;-141.97;39.20;47517.16;4859630;29;20183;-79
2022/10/05 08:35:42;;;;;;;5.23;4.03;;;;;;;-141.97;39.15;47496.00;4857546;29;20264;-80
2022/10/05 08:38:17;;;;;;;9.30;4.43;;;;;;;-141.97;39.26;47546.00;4822103;29;20217;-80
2022/10/05 08:40:50;;;;;;;6.13;3.80;;;;;;;-141.97;38.07;47546.00;4822236;29;20715;-80
2022/10/05 08:44:06;;;;;;;7.27;5.10;;;;;;;-141.97;38.55;47511.38;4822169;29;20176;-79
2022/10/05 08:47:26;;;;;;;10.40;5.13;;;;;;;-141.97;38.26;47503.69;4858371;29;20278;-79
2022/10/05 08:50:01;;;;;;;8.57;5.00;;;;;;;-141.97;37.95;47534.44;4786059;30;20206;-79
2022/10/05 08:52:28;;;;;;;7.47;5.07;;;;;;;-141.97;37.51;47530.59;4785746;30;20899;-80
2022/10/05 08:55:09;;;;;;;9.00;5.13;;;;;;;-141.97;36.85;47503.69;4788801;29;20237;-79
2022/10/05 08:57:58;;;;;;;6.97;5.30;;;;;;;-141.97;36.47;47521.00;4803486;29;20500;-80
2022/10/05 09:00:50;;;;;;;9.80;5.33;;;;;;;-141.97;37.49;47499.84;4803853;29;20205;-80
2022/10/05 09:03:37;;;;;;;8.53;5.00;;;;;;;-141.97;37.65;47519.06;4794653;29;20246;-80
2022/10/05 09:06:21;;;;;;;8.07;5.20;;;;;;;-141.97;36.73;47497.94;4817300;29;20212;-79
2022/10/05 09:09:06;;;;;;;18.67;11.60;;;;;;;-141.97;36.29;47484.47;4858003;29;20222;-80
2022/10/05 09:11:36;;;;;;;17.20;8.40;;;;;;;-141.97;36.35;47484.47;4858316;29;20211;-80
2022/10/05 09:14:23;;;;;;;7.33;4.60;;;;;;;-141.97;36.70;47515.22;4858457;29;20180;-80
2022/10/05 09:16:51;;;;;;;8.20;3.93;;;;;;;-141.97;36.13;47492.16;4857458;29;20601;-79
2022/10/05 09:19:35;;;;;;;11.43;8.70;;;;;;;-141.97;35.96;47526.75;4858166;29;20640;-80
2022/10/05 09:22:22;;;;;;;7.03;4.67;;;;;;;-141.97;36.04;47509.47;4850326;29;20661;-80
2022/10/05 09:24:55;;;;;;;7.10;4.30;;;;;;;-141.97;35.66;47521.00;4923790;29;20717;-80
2022/10/05 09:27:34;;;;;;;7.20;4.13;;;;;;;-141.97;35.00;47472.94;4935807;29;20224;-79
2022/10/05 09:30:05;;;;;;;4.77;3.70;;;;;;;-141.97;34.30;47471.03;4934355;29;20192;-80
2022/10/05 09:32:56;;;;;;;6.20;4.20;;;;;;;-141.97;34.68;47474.88;4934757;28;20564;-79
2022/10/05 09:35:27;;;;;;;7.73;4.77;;;;;;;-141.97;34.30;47519.06;4934151;28;20252;-80
2022/10/05 09:38:19;;;;;;;11.20;9.80;;;;;;;-141.97;34.64;47496.00;4935900;29;20258;-78
2022/10/05 09:41:19;;;;;;;5.70;3.60;;;;;;;-141.97;33.95;47474.88;4938324;29;20205;-79
2022/10/05 09:44:05;;;;;;;4.77;3.17;;;;;;;-141.97;33.23;47476.78;4934960;29;20261;-80
2022/10/05 09:46:57;;;;;;;11.37;7.20;;;;;;;-141.97;33.06;47471.03;4934876;29;20205;-79
2022/10/05 09:50:00;;;;;;;3.70;3.20;;;;;;;-141.97;32.94;47472.94;4935011;29;20300;-80
2022/10/05 09:52:43;;;;;;;4.73;3.37;;;;;;;-141.97;32.94;47480.63;4935203;29;20177;-80
2022/10/05 09:55:30;;;;;;;5.47;3.60;;;;;;;-141.97;33.23;47517.16;4947779;28;20571;-80
2022/10/05 09:58:15;;;;;;;4.87;2.90;;;;;;;-141.97;33.46;47499.84;4962938;28;20528;-80
2022/10/05 10:01:02;;;;;;;4.37;3.50;;;;;;;-141.97;32.78;47522.91;4973795;28;20168;-80
2022/10/05 10:04:06;;;;;;;4.33;3.20;;;;;;;-141.97;32.38;47472.94;4964571;28;20252;-80
2022/10/05 10:07:03;;;;;;;3.77;3.30;;;;;;;-141.97;31.81;47463.34;4956476;28;20294;-79
2022/10/05 10:09:53;;;;;;;4.00;2.87;;;;;;;-141.97;31.44;47486.41;4953850;28;20766;-80
2022/10/05 10:13:12;;;;;;;4.23;3.10;;;;;;;-141.97;32.00;47474.88;4953851;28;20215;-80
2022/10/05 10:15:47;;;;;;;5.40;3.40;;;;;;;-141.97;32.18;47484.47;4932431;29;20185;-79
2022/10/05 10:18:34;;;;;;;3.60;3.07;;;;;;;-141.97;32.47;47492.16;4932914;29;20200;-83
2022/10/05 10:21:28;;;;;;;5.67;2.97;;;;;;;-141.97;32.19;47469.09;4933328;29;20189;-87
2022/10/05 10:24:21;;;;;;;4.27;2.77;;;;;;;-141.97;31.86;47488.31;4933333;29;20197;-88
2022/10/05 10:27:05;;;;;;;4.13;2.80;;;;;;;-141.97;31.58;47442.19;4932687;29;20205;-86
2022/10/05 10:29:44;;;;;;;3.03;2.73;;;;;;;-141.97;31.47;47369.16;4916948;29;20236;-86
2022/10/05 10:32:21;;;;;;;6.00;2.67;;;;;;;-141.97;31.24;47465.25;4917155;29;20269;-86
2022/10/05 10:35:21;;;;;;;3.90;2.60;;;;;;;-141.97;31.14;47478.72;4932709;29;20181;-86
2022/10/05 10:38:23;;;;;;;6.53;3.00;;;;;;;-141.97;30.97;47476.78;4932726;29;20273;-85
2022/10/05 10:41:03;;;;;;;3.57;2.63;;;;;;;-141.97;31.23;47438.34;4916733;29;20570;-86
2022/10/05 10:43:50;;;;;;;2.70;2.40;;;;;;;-141.97;30.81;47461.41;4931974;29;20196;-86
2022/10/05 10:46:43;;;;;;;3.37;2.50;;;;;;;-141.97;30.99;47482.56;4932462;29;20178;-87
2022/10/05 10:49:25;;;;;;;4.43;3.00;;;;;;;-141.97;31.58;47465.25;4941750;28;20206;-86
2022/10/05 10:52:12;;;;;;;4.03;3.07;;;;;;;-141.97;30.80;47440.28;4952513;28;20192;-87
2022/10/05 10:55:06;;;;;;;2.77;2.57;;;;;;;-141.97;30.93;47453.72;4982337;28;20227;-87
2022/10/05 10:57:49;;;;;;;3.43;3.00;;;;;;;-141.97;30.95;47484.47;4932598;29;20240;-87
2022/10/05 11:00:37;;;;;;;3.97;2.80;;;;;;;-141.97;31.31;47490.25;4932451;29;20312;-87
2022/10/05 11:03:10;;;;;;;3.97;2.67;;;;;;;-141.97;31.48;47442.19;4932808;29;20283;-87
2022/10/05 11:05:54;;;;;;;2.83;2.50;;;;;;;-141.97;30.67;47501.78;4931859;29;20562;-87
2022/10/05 11:08:51;;;;;;;6.00;2.70;;;;;;;-141.97;30.75;47496.00;4932326;29;20224;-86
2022/10/05 11:11:35;;;;;;;3.13;2.60;;;;;;;-141.97;30.72;47492.16;4878029;29;20218;-87
2022/10/05 11:14:32;;;;;;;3.70;2.50;;;;;;;-141.97;30.93;47472.94;4876113;29;20198;-87
2022/10/05 11:17:09;;;;;;;5.90;3.20;;;;;;;-141.97;30.97;47465.25;4875836;29;20731;-87
2022/10/05 11:19:47;;;;;;;5.17;3.20;;;;;;;-141.97;31.00;47438.34;4875883;29;20954;-87
2022/10/05 11:22:24;;;;;;;3.33;2.70;;;;;;;-141.97;31.13;47507.53;4876049;29;20938;-86
2022/10/05 11:25:04;;;;;;;2.70;2.43;;;;;;;-141.97;31.21;47476.78;4875903;29;20175;-87
2022/10/05 11:27:57;;;;;;;2.60;2.30;;;;;;;-141.97;31.10;47480.63;4875525;29;20234;-88
2022/10/05 11:30:38;;;;;;;3.53;2.63;;;;;;;-141.97;30.98;47396.06;4876321;29;20215;-88
2022/10/05 11:33:41;;;;;;;4.23;2.40;;;;;;;-141.97;30.57;47474.88;4880150;29;20180;-86
2022/10/05 11:36:24;;;;;;;2.73;2.50;;;;;;;-141.97;30.99;47492.16;4899891;29;20209;-86
2022/10/05 11:39:23;;;;;;;3.23;2.50;;;;;;;-141.97;30.92;47442.19;4918628;29;20266;-86
2022/10/05 11:41:54;;;;;;;2.83;2.60;;;;;;;-141.97;31.11;47511.38;4914279;29;20686;-87
2022/10/05 11:44:38;;;;;;;2.83;2.63;;;;;;;-141.97;30.94;47511.38;4913585;29;20702;-87
2022/10/05 11:47:25;;;;;;;2.80;2.60;;;;;;;-141.97;30.69;47480.63;4920011;28;20301;-87
2022/10/05 11:50:14;;;;;;;3.10;2.80;;;;;;;-141.97;30.45;47440.28;4975390;28;20187;-85
2022/10/05 11:52:58;;;;;;;2.97;2.70;;;;;;;-141.97;29.98;47476.78;4975443;28;20172;-86
2022/10/05 11:56:11;;;;;;;4.40;3.47;;;;;;;-141.97;29.75;47507.53;4975252;28;20219;-85
2022/10/05 11:59:12;;;;;;;3.83;3.47;;;;;;;-141.97;29.88;47459.50;4922213;29;20201;-87
2022/10/05 12:01:46;;;;;;;5.30;3.00;;;;;;;-141.97;29.80;47507.53;4874004;29;20224;-87
2022/10/05 12:04:44;;;;;;;3.63;3.00;;;;;;;-141.97;29.49;47449.88;4871061;29;20252;-86
2022/10/05 12:07:34;;;;;;;2.77;2.57;;;;;;;-141.97;29.04;47461.41;4824567;29;20672;-87
2022/10/05 12:10:34;;;;;;;2.72;2.50;;;;;;;-141.97;28.84;47476.78;4816762;29;20573;-86
2022/10/05 12:13:05;;;;;;;2.75;2.55;;;;;;;-141.97;28.91;47417.22;4805952;29;20204;-87
2022/10/05 12:15:39;;;;;;;2.95;2.75;;;;;;;-141.97;28.58;47438.34;4807859;29;20203;-86
2022/10/05 12:18:18;;;;;;;2.85;2.60;;;;;;;-141.97;28.12;47444.13;4826395;29;20231;-87
2022/10/05 12:20:59;;;;;;;2.95;2.65;;;;;;;-141.97;28.59;47415.28;4822154;29;20184;-86
2022/10/05 12:23:41;;;;;;;2.97;2.70;;;;;;;-141.97;28.46;47440.28;4808312;29;20342;-86
2022/10/05 12:26:24;;;;;;;3.85;2.75;;;;;;;-141.97;28.62;47434.50;4808126;29;20212;-86